createdAt,value
2022-10-11T00:01:52.373Z,92520.31
2022-10-11T00:04:38.088Z,92523.41
2022-10-11T00:07:23.805Z,92521.13
2022-10-11T00:10:09.670Z,92521.16
2022-10-11T00:12:55.457Z,92518.97
2022-10-11T00:15:41.501Z,92519.66
2022-10-11T00:18:27.275Z,92525.00
2022-10-11T00:21:13.035Z,92518.00
2022-10-11T00:23:58.905Z,92515.03
2022-10-11T00:26:47.019Z,92526.44
2022-10-11T00:29:33.274Z,92527.81
2022-10-11T00:32:19.249Z,92530.50
2022-10-11T00:35:05.241Z,92524.66
2022-10-11T00:37:51.201Z,92531.84
2022-10-11T00:40:37.441Z,92533.38
2022-10-11T00:43:23.409Z,92525.78
2022-10-11T00:46:09.462Z,92526.28
2022-10-11T00:48:55.763Z,92530.69
2022-10-11T00:51:41.586Z,92530.69
2022-10-11T00:54:27.338Z,92532.88
2022-10-11T00:57:13.367Z,92527.50
2022-10-11T00:59:59.185Z,92527.47
2022-10-11T01:02:45.080Z,92522.78
2022-10-11T01:05:31.044Z,92525.19
2022-10-11T01:08:16.779Z,92518.91
2022-10-11T01:11:02.523Z,92518.50
2022-10-11T01:13:48.361Z,92514.69
2022-10-11T01:16:34.259Z,92512.09
2022-10-11T01:19:20.165Z,92508.00
2022-10-11T01:22:05.936Z,92509.44
2022-10-11T01:24:51.869Z,92510.97
2022-10-11T01:27:37.762Z,92516.44
2022-10-11T01:30:23.567Z,92518.19
2022-10-11T01:33:09.505Z,92507.00
2022-10-11T01:35:55.375Z,92509.66
2022-10-11T01:38:41.198Z,92507.13
2022-10-11T01:41:29.141Z,92513.53
2022-10-11T01:44:15.071Z,92516.25
2022-10-11T01:47:01.097Z,92515.44
2022-10-11T01:49:48.941Z,92502.66
2022-10-11T01:52:34.732Z,92509.03
2022-10-11T01:55:20.493Z,92510.94
2022-10-11T01:58:06.321Z,92505.13
2022-10-11T02:00:52.267Z,92500.16
2022-10-11T02:03:38.322Z,92503.75
2022-10-11T02:06:24.043Z,92513.59
2022-10-11T02:09:09.913Z,92508.00
2022-10-11T02:11:55.954Z,92510.28
2022-10-11T02:14:41.815Z,92512.63
2022-10-11T02:17:27.827Z,92506.28
2022-10-11T02:20:13.644Z,92502.56
2022-10-11T02:22:59.541Z,92501.75
2022-10-11T02:25:45.449Z,92502.25
2022-10-11T02:28:31.280Z,92496.22
2022-10-11T02:31:17.178Z,92489.25
2022-10-11T02:34:03.023Z,92493.16
2022-10-11T02:36:48.809Z,92488.88
2022-10-11T02:39:34.742Z,92492.00
2022-10-11T02:42:20.501Z,92492.59
2022-10-11T02:45:06.202Z,92495.13
2022-10-11T02:47:52.120Z,92497.72
2022-10-11T02:50:37.969Z,92493.69
2022-10-11T02:53:23.804Z,92498.75
2022-10-11T02:56:11.727Z,92491.19
2022-10-11T02:58:57.590Z,92494.41
2022-10-11T03:01:43.447Z,92490.72
2022-10-11T03:04:29.351Z,92489.41
2022-10-11T03:07:15.175Z,92484.06
2022-10-11T03:10:00.947Z,92493.06
2022-10-11T03:12:46.739Z,92500.09
2022-10-11T03:15:32.548Z,92494.53
2022-10-11T03:18:18.327Z,92498.09
2022-10-11T03:21:04.115Z,92497.66
2022-10-11T03:23:49.960Z,92501.16
2022-10-11T03:26:35.664Z,92503.31
2022-10-11T03:29:21.440Z,92503.22
2022-10-11T03:32:07.386Z,92500.06
2022-10-11T03:34:53.305Z,92504.22
2022-10-11T03:37:39.419Z,92505.19
2022-10-11T03:40:25.217Z,92495.81
2022-10-11T03:43:11.131Z,92503.72
2022-10-11T03:45:57.176Z,92499.97
2022-10-11T03:48:42.988Z,92502.91
2022-10-11T03:51:28.762Z,92507.94
2022-10-11T03:54:14.609Z,92508.13
2022-10-11T03:57:00.435Z,92505.56
2022-10-11T03:59:46.389Z,92513.09
2022-10-11T04:02:35.729Z,92503.72
2022-10-11T04:05:24.373Z,92506.75
2022-10-11T04:08:12.280Z,92503.00
2022-10-11T04:10:58.365Z,92504.13
2022-10-11T04:13:44.315Z,92496.59
2022-10-11T04:16:30.175Z,92501.53
2022-10-11T04:19:16.264Z,92499.59
2022-10-11T04:22:04.032Z,92509.34
2022-10-11T04:24:49.849Z,92504.78
2022-10-11T04:27:35.756Z,92508.13
2022-10-11T04:30:21.634Z,92507.38
2022-10-11T04:33:07.434Z,92511.56
2022-10-11T04:35:53.198Z,92510.25
2022-10-11T04:38:39.026Z,92502.56
2022-10-11T04:41:24.775Z,92509.25
2022-10-11T04:44:10.614Z,92514.47
2022-10-11T04:46:56.458Z,92513.72
2022-10-11T04:49:42.183Z,92519.72
2022-10-11T04:52:28.078Z,92518.63
2022-10-11T04:55:13.994Z,92517.78
2022-10-11T04:57:59.805Z,92515.56
2022-10-11T05:00:45.794Z,92519.59
2022-10-11T05:03:31.731Z,92524.91
2022-10-11T05:06:17.550Z,92521.09
2022-10-11T05:09:03.422Z,92515.94
2022-10-11T05:11:49.269Z,92517.03
2022-10-11T05:14:35.099Z,92520.53
2022-10-11T05:17:21.001Z,92517.84
2022-10-11T05:20:06.871Z,92518.94
2022-10-11T05:22:52.736Z,92516.84
2022-10-11T05:25:38.739Z,92518.59
2022-10-11T05:28:24.645Z,92518.31
2022-10-11T05:31:10.493Z,92517.63
2022-10-11T05:33:56.440Z,92517.28
2022-10-11T05:36:42.232Z,92520.34
2022-10-11T05:39:28.159Z,92520.41
2022-10-11T05:42:13.986Z,92516.88
2022-10-11T05:44:59.788Z,92518.47
2022-10-11T05:47:45.537Z,92513.25
2022-10-11T05:50:31.370Z,92512.88
2022-10-11T05:53:17.217Z,92504.88
2022-10-11T05:56:03.381Z,92502.19
2022-10-11T05:58:49.752Z,92515.41
2022-10-11T06:01:35.693Z,92506.25
2022-10-11T06:04:21.412Z,92512.09
2022-10-11T06:07:07.326Z,92512.09
2022-10-11T06:09:53.094Z,92512.50
2022-10-11T06:12:38.897Z,92521.13
2022-10-11T06:15:24.917Z,92518.56
2022-10-11T06:18:10.601Z,92525.19
2022-10-11T06:20:56.541Z,92529.69
2022-10-11T06:23:42.417Z,92527.63
2022-10-11T06:26:28.221Z,92540.59
2022-10-11T06:29:14.235Z,92535.94
2022-10-11T06:32:00.080Z,92544.59
2022-10-11T06:34:45.901Z,92545.69
2022-10-11T06:37:31.732Z,92544.53
2022-10-11T06:40:17.488Z,92545.84
2022-10-11T06:43:03.365Z,92554.75
2022-10-11T06:45:49.243Z,92558.34
2022-10-11T06:48:35.044Z,92555.66
2022-10-11T06:51:20.944Z,92558.38
2022-10-11T06:54:06.848Z,92555.16
2022-10-11T06:56:52.822Z,92559.81
2022-10-11T06:59:38.736Z,92564.94
2022-10-11T07:02:24.563Z,92559.81
2022-10-11T07:05:10.468Z,92564.47
2022-10-11T07:07:56.339Z,92553.06
2022-10-11T07:10:42.240Z,92558.28
2022-10-11T07:13:28.250Z,92561.38
2022-10-11T07:16:14.175Z,92566.28
2022-10-11T07:19:02.039Z,92574.44
2022-10-11T07:21:48.123Z,92577.63
2022-10-11T07:24:33.899Z,92580.88
2022-10-11T07:27:21.853Z,92575.31
2022-10-11T07:30:07.686Z,92580.34
2022-10-11T07:32:53.599Z,92562.50
2022-10-11T07:35:39.445Z,92564.69
2022-10-11T07:38:25.396Z,92565.72
2022-10-11T07:41:11.326Z,92572.84
2022-10-11T07:43:57.179Z,92575.38
2022-10-11T07:46:42.960Z,92565.16
2022-10-11T07:49:28.907Z,92581.44
2022-10-11T07:52:14.760Z,92577.09
2022-10-11T07:55:00.609Z,92577.81
2022-10-11T07:57:46.371Z,92589.06
2022-10-11T08:00:32.285Z,92582.66
2022-10-11T08:03:18.194Z,92589.34
2022-10-11T08:06:04.437Z,92588.06
2022-10-11T08:08:50.682Z,92589.38
2022-10-11T08:11:36.685Z,92585.56
2022-10-11T08:14:22.465Z,92588.63
2022-10-11T08:17:08.413Z,92590.50
2022-10-11T08:19:54.266Z,92587.84
2022-10-11T08:22:40.113Z,92584.78
2022-10-11T08:25:25.902Z,92590.84
2022-10-11T08:28:12.034Z,92601.31
2022-10-11T08:30:57.776Z,92603.44
2022-10-11T08:33:43.732Z,92602.94
2022-10-11T08:36:29.604Z,92603.31
2022-10-11T08:39:16.053Z,92601.53
2022-10-11T08:42:02.070Z,92609.34
2022-10-11T08:45:27.656Z,92601.16
2022-10-11T08:57:50.154Z,92603.16
2022-10-11T09:00:36.096Z,92597.72
2022-10-11T09:03:21.959Z,92605.47
2022-10-11T09:06:08.516Z,92608.34
2022-10-11T09:08:54.890Z,92605.47
2022-10-11T09:11:40.790Z,92605.34
2022-10-11T09:14:26.493Z,92603.97
2022-10-11T09:17:12.626Z,92606.03
2022-10-11T09:19:58.511Z,92602.63
2022-10-11T09:22:44.316Z,92603.25
2022-10-11T09:25:30.391Z,92603.75
2022-10-11T09:28:16.368Z,92605.50
2022-10-11T09:31:02.199Z,92609.31
2022-10-11T09:33:48.345Z,92607.47
2022-10-11T09:36:34.242Z,92598.22
2022-10-11T09:39:20.203Z,92601.84
2022-10-11T09:42:05.973Z,92603.56
2022-10-11T09:44:51.904Z,92609.34
2022-10-11T09:47:37.756Z,92606.38
2022-10-11T09:50:23.587Z,92604.66
2022-10-11T09:53:09.493Z,92601.69
2022-10-11T09:55:55.284Z,92606.75
2022-10-11T09:58:41.050Z,92604.34
2022-10-11T10:01:27.047Z,92604.94
2022-10-11T10:04:12.723Z,92604.53
2022-10-11T10:06:58.714Z,92609.75
2022-10-11T10:09:46.741Z,92603.69
2022-10-11T10:12:32.598Z,92611.59
2022-10-11T10:15:18.335Z,92608.91
2022-10-11T10:18:04.174Z,92610.31
2022-10-11T10:20:49.901Z,92611.19
2022-10-11T10:23:35.761Z,92605.25
2022-10-11T10:26:21.582Z,92606.00
2022-10-11T10:29:07.344Z,92601.22
2022-10-11T10:34:59.330Z,92605.53
2022-10-11T10:37:45.014Z,92599.22
2022-10-11T10:40:31.128Z,92606.38
2022-10-11T10:43:16.818Z,92605.22
2022-10-11T10:46:05.204Z,92605.78
2022-10-11T10:51:57.210Z,92603.94
2022-10-11T10:54:42.944Z,92607.28
2022-10-11T10:57:28.830Z,92601.03
2022-10-11T11:00:14.895Z,92602.66
2022-10-11T11:03:01.002Z,92609.63
2022-10-11T11:05:46.835Z,92601.56
2022-10-11T11:08:32.520Z,92605.63
2022-10-11T11:11:18.589Z,92595.19
2022-10-11T11:14:04.360Z,92602.50
2022-10-11T11:16:50.146Z,92598.66
2022-10-11T11:19:36.170Z,92594.16
2022-10-11T11:22:22.081Z,92595.53
2022-10-11T11:25:07.845Z,92594.84
2022-10-11T11:27:53.748Z,92588.44
2022-10-11T11:30:39.540Z,92590.19
2022-10-11T11:33:25.347Z,92586.31
2022-10-11T11:36:11.349Z,92583.34
2022-10-11T11:38:57.338Z,92575.19
2022-10-11T11:41:43.335Z,92580.81
2022-10-11T11:44:29.107Z,92577.72
2022-10-11T11:47:14.844Z,92581.81
2022-10-11T11:50:00.632Z,92584.09
2022-10-11T11:52:46.403Z,92587.28
2022-10-11T11:55:32.215Z,92584.69
2022-10-11T11:58:18.068Z,92580.59
2022-10-11T12:01:04.365Z,92573.50
2022-10-11T12:03:50.486Z,92569.69
2022-10-11T12:06:43.739Z,92568.97
2022-10-11T12:09:38.717Z,92574.28
2022-10-11T12:12:24.569Z,92564.38
2022-10-11T12:15:10.416Z,92568.56
2022-10-11T12:17:56.338Z,92568.97
2022-10-11T12:20:42.295Z,92568.56
2022-10-11T12:23:28.042Z,92566.34
2022-10-11T12:26:13.818Z,92562.56
2022-10-11T12:28:59.591Z,92555.75
2022-10-11T12:31:46.311Z,92554.94
2022-10-11T12:34:32.405Z,92553.81
2022-10-11T12:37:18.372Z,92547.75
2022-10-11T12:40:04.280Z,92545.44
2022-10-11T12:42:50.139Z,92541.69
2022-10-11T12:45:35.959Z,92543.16
2022-10-11T12:48:21.950Z,92547.00
2022-10-11T12:51:07.670Z,92534.84
2022-10-11T12:54:14.437Z,92536.38
2022-10-11T12:56:59.421Z,92545.47
2022-10-11T12:59:45.182Z,92532.97
2022-10-11T13:02:31.182Z,92539.81
2022-10-11T13:05:17.272Z,92536.72
2022-10-11T13:08:03.136Z,92541.28
2022-10-11T13:10:49.025Z,92535.97
2022-10-11T13:13:34.856Z,92534.06
2022-10-11T13:16:20.759Z,92537.16
2022-10-11T13:19:06.694Z,92532.22
2022-10-11T13:21:52.691Z,92523.88
2022-10-11T13:24:38.925Z,92524.94
2022-10-11T13:27:24.799Z,92520.47
2022-10-11T13:30:12.683Z,92515.81
2022-10-11T13:32:58.572Z,92507.84
2022-10-11T13:35:44.489Z,92507.09
2022-10-11T13:38:30.293Z,92512.91
2022-10-11T13:41:16.090Z,92506.84
2022-10-11T13:44:01.825Z,92502.59
2022-10-11T13:46:47.716Z,92509.50
2022-10-11T13:49:33.574Z,92500.69
2022-10-11T13:52:19.472Z,92510.19
2022-10-11T13:55:05.375Z,92502.63
2022-10-11T13:57:51.375Z,92506.44
2022-10-11T14:00:37.328Z,92509.44
2022-10-11T14:03:23.236Z,92510.25
2022-10-11T14:06:09.444Z,92506.03
2022-10-11T14:08:55.501Z,92509.84
2022-10-11T14:11:43.451Z,92507.19
2022-10-11T14:14:29.129Z,92503.38
2022-10-11T14:17:17.062Z,92501.13
2022-10-11T14:20:08.669Z,92496.88
2022-10-11T14:22:56.976Z,92493.03
2022-10-11T14:25:42.840Z,92496.09
2022-10-11T14:28:28.696Z,92496.47
2022-10-11T14:31:14.696Z,92493.88
2022-10-11T14:34:00.765Z,92495.72
2022-10-11T14:36:46.884Z,92491.53
2022-10-11T14:39:32.811Z,92498.34
2022-10-11T14:42:18.642Z,92495.34
2022-10-11T14:45:04.537Z,92500.59
2022-10-11T14:47:50.598Z,92500.25
2022-10-11T14:50:36.525Z,92506.78
2022-10-11T14:53:22.512Z,92502.28
2022-10-11T14:56:08.745Z,92506.00
2022-10-11T14:58:54.948Z,92494.25
2022-10-11T15:01:40.892Z,92500.72
2022-10-11T15:04:26.580Z,92503.97
2022-10-11T15:07:12.555Z,92493.41
2022-10-11T15:09:58.345Z,92505.63
2022-10-11T15:12:44.159Z,92498.00
2022-10-11T15:15:29.944Z,92502.22
2022-10-11T15:18:15.686Z,92498.47
2022-10-11T15:21:01.558Z,92498.47
2022-10-11T15:23:47.886Z,92504.16
2022-10-11T15:26:33.683Z,92500.75
2022-10-11T15:29:19.691Z,92495.41
2022-10-11T15:32:05.627Z,92498.50
2022-10-11T15:34:53.525Z,92497.72
2022-10-11T15:37:39.390Z,92497.34
2022-10-11T15:40:25.132Z,92491.28
2022-10-11T15:43:11.143Z,92500.75
2022-10-11T15:45:57.075Z,92494.69
2022-10-11T15:48:42.859Z,92492.78
2022-10-11T15:51:28.657Z,92491.28
2022-10-11T15:54:14.563Z,92499.97
2022-10-11T15:57:00.371Z,92496.16
2022-10-11T15:59:46.298Z,92495.78
2022-10-11T16:02:32.079Z,92493.88
2022-10-11T16:05:19.942Z,92498.75
2022-10-11T16:08:05.786Z,92501.72
2022-10-11T16:10:51.632Z,92493.09
2022-10-11T16:13:37.651Z,92496.09
2022-10-11T16:16:23.725Z,92505.25
2022-10-11T16:19:09.537Z,92502.91
2022-10-11T16:21:55.424Z,92500.63
2022-10-11T16:24:41.242Z,92502.13
2022-10-11T16:27:27.032Z,92500.88
2022-10-11T16:30:12.965Z,92504.66
2022-10-11T16:32:58.736Z,92503.09
2022-10-11T16:35:44.724Z,92513.31
2022-10-11T16:38:31.044Z,92513.69
2022-10-11T16:41:16.822Z,92509.59
2022-10-11T16:44:02.800Z,92511.06
2022-10-11T16:46:48.635Z,92509.59
2022-10-11T16:49:34.449Z,92516.41
2022-10-11T16:52:20.381Z,92521.44
2022-10-11T16:55:06.183Z,92518.03
2022-10-11T16:57:52.084Z,92526.97
2022-10-11T17:00:38.007Z,92523.31
2022-10-11T17:03:23.845Z,92527.88
2022-10-11T17:06:09.959Z,92530.41
2022-10-11T17:08:56.144Z,92533.56
2022-10-11T17:11:41.992Z,92530.09
2022-10-11T17:14:27.824Z,92533.59
2022-10-11T17:17:13.629Z,92531.41
2022-10-11T17:19:59.521Z,92531.41
2022-10-11T17:22:45.336Z,92527.63
2022-10-11T17:25:31.090Z,92527.97
2022-10-11T17:28:17.159Z,92523.00
2022-10-11T17:31:03.449Z,92523.06
2022-10-11T17:33:49.449Z,92523.00
2022-10-11T17:36:35.496Z,92529.03
2022-10-11T17:39:21.343Z,92531.31
2022-10-11T17:42:07.376Z,92530.63
2022-10-11T17:44:53.241Z,92533.63
2022-10-11T17:47:41.119Z,92534.00
2022-10-11T17:50:26.987Z,92533.63
2022-10-11T17:53:12.700Z,92532.13
2022-10-11T17:55:58.534Z,92533.94
2022-10-11T17:58:44.376Z,92547.16
2022-10-11T18:01:30.261Z,92553.69
2022-10-11T18:04:16.159Z,92547.72
2022-10-11T18:07:02.135Z,92551.81
2022-10-11T18:09:47.980Z,92553.59
2022-10-11T18:12:33.846Z,92547.94
2022-10-11T18:15:19.855Z,92546.38
2022-10-11T18:18:05.786Z,92546.25
2022-10-11T18:20:51.674Z,92550.91
2022-10-11T18:23:37.481Z,92543.91
2022-10-11T18:26:26.699Z,92538.09
2022-10-11T18:29:16.066Z,92538.16
2022-10-11T18:32:01.980Z,92539.19
2022-10-11T18:34:47.775Z,92534.09
2022-10-11T18:37:33.613Z,92534.28
2022-10-11T18:40:19.362Z,92532.78
2022-10-11T18:43:05.347Z,92532.94
2022-10-11T18:45:51.201Z,92534.44
2022-10-11T18:48:37.039Z,92533.63
2022-10-11T18:51:22.828Z,92537.81
2022-10-11T18:54:08.541Z,92531.84
2022-10-11T18:56:54.494Z,92544.28
2022-10-11T18:59:40.435Z,92544.97
2022-10-11T19:02:26.070Z,92543.47
2022-10-11T19:05:11.902Z,92540.47
2022-10-11T19:07:57.838Z,92555.31
2022-10-11T19:10:43.744Z,92539.03
2022-10-11T19:13:29.553Z,92538.69
2022-10-11T19:16:15.400Z,92543.50
2022-10-11T19:19:03.166Z,92539.00
2022-10-11T19:21:51.196Z,92543.06
2022-10-11T19:24:37.033Z,92537.75
2022-10-11T19:27:22.746Z,92539.63
2022-10-11T19:30:08.597Z,92542.59
2022-10-11T19:32:54.514Z,92538.88
2022-10-11T19:35:40.459Z,92541.94
2022-10-11T19:38:26.404Z,92544.19
2022-10-11T19:41:12.280Z,92533.75
2022-10-11T19:43:58.246Z,92543.28
2022-10-11T19:46:51.632Z,92533.34
2022-10-11T19:49:38.434Z,92542.19
2022-10-11T19:52:24.254Z,92548.16
2022-10-11T19:55:10.228Z,92544.34
2022-10-11T19:57:55.926Z,92546.31
2022-10-11T20:00:41.843Z,92550.38
2022-10-11T20:03:27.806Z,92553.47
2022-10-11T20:06:13.721Z,92551.47
2022-10-11T20:09:27.461Z,92555.75
2022-10-11T20:12:07.431Z,92557.31
2022-10-11T20:14:53.289Z,92561.09
2022-10-11T20:17:39.053Z,92556.63
2022-10-11T20:20:24.931Z,92556.94
2022-10-11T20:23:14.765Z,92560.78
2022-10-11T20:26:04.697Z,92566.50
2022-10-11T20:28:55.700Z,92567.81
2022-10-11T20:31:41.892Z,92574.66
2022-10-11T20:34:27.824Z,92576.41
2022-10-11T20:37:13.770Z,92578.88
2022-10-11T20:39:59.565Z,92576.63
2022-10-11T20:42:48.585Z,92578.84
2022-10-11T20:45:34.365Z,92582.94
2022-10-11T20:48:22.290Z,92579.00
2022-10-11T20:51:08.063Z,92583.56
2022-10-11T20:53:54.003Z,92574.41
2022-10-11T20:56:39.847Z,92579.81
2022-10-11T20:59:25.798Z,92574.59
2022-10-11T21:02:14.334Z,92576.53
2022-10-11T21:05:04.221Z,92576.59
2022-10-11T21:07:50.310Z,92571.25
2022-10-11T21:10:36.199Z,92571.16
2022-10-11T21:13:22.209Z,92574.06
2022-10-11T21:16:07.974Z,92571.06
2022-10-11T21:18:53.733Z,92571.16
2022-10-11T21:21:39.671Z,92576.91
2022-10-11T21:24:25.664Z,92567.78
2022-10-11T21:27:11.496Z,92569.00
2022-10-11T21:29:57.175Z,92578.91
2022-10-11T21:32:43.064Z,92576.28
2022-10-11T21:35:28.933Z,92574.00
2022-10-11T21:38:14.926Z,92573.38
2022-10-11T21:41:00.833Z,92571.25
2022-10-11T21:43:46.848Z,92577.81
2022-10-11T21:49:38.689Z,92570.31
2022-10-11T21:52:24.514Z,92566.91
2022-10-11T21:55:10.462Z,92569.38
2022-10-11T21:57:56.332Z,92572.44
2022-10-11T22:00:42.263Z,92570.28
2022-10-11T22:03:28.234Z,92573.25
2022-10-11T22:06:14.041Z,92568.50
2022-10-11T22:09:00.093Z,92576.22
2022-10-11T22:11:46.044Z,92570.13
2022-10-11T22:14:31.861Z,92570.53
2022-10-11T22:17:17.882Z,92572.31
2022-10-11T22:20:03.790Z,92582.13
2022-10-11T22:22:49.585Z,92576.03
2022-10-11T22:25:35.446Z,92573.78
2022-10-11T22:28:21.358Z,92570.66
2022-10-11T22:31:07.286Z,92571.38
2022-10-11T22:33:53.146Z,92572.91
2022-10-11T22:36:39.065Z,92559.84
2022-10-11T22:39:25.053Z,92567.47
2022-10-11T22:42:10.939Z,92570.72
2022-10-11T22:44:56.832Z,92571.94
2022-10-11T22:47:42.581Z,92569.03
2022-10-11T22:50:28.611Z,92572.47
2022-10-11T22:53:16.531Z,92572.31
2022-10-11T22:56:02.355Z,92576.13
2022-10-11T22:58:48.274Z,92573.44
2022-10-11T23:01:34.215Z,92571.09
2022-10-11T23:04:19.897Z,92574.47
2022-10-11T23:07:05.842Z,92568.94
2022-10-11T23:09:51.678Z,92579.66
2022-10-11T23:12:37.599Z,92577.84
2022-10-11T23:15:23.521Z,92576.69
2022-10-11T23:18:09.441Z,92579.53
2022-10-11T23:20:55.378Z,92577.94
2022-10-11T23:23:41.224Z,92579.63
2022-10-11T23:26:27.022Z,92580.97
2022-10-11T23:29:12.936Z,92580.88
2022-10-11T23:31:58.674Z,92575.81
2022-10-11T23:34:44.570Z,92584.38
2022-10-11T23:37:30.364Z,92587.28
2022-10-11T23:40:16.095Z,92583.41
2022-10-11T23:43:02.008Z,92587.16
2022-10-11T23:45:47.794Z,92590.63
2022-10-11T23:48:33.694Z,92591.41
2022-10-11T23:51:19.487Z,92590.34
2022-10-11T23:54:05.265Z,92587.44
2022-10-11T23:56:53.062Z,92584.72
2022-10-11T23:59:38.982Z,92586.53
